Terminal Aerodrome Forecast
Issued by NWS

Home | Current Version | Previous Version | Text Only | Print | Product List | Glossary On
Versions: 1 2 3 4 5 6 7 8 9 10 11 12 13
877
FTUS46 KPDT 181722
TAFDLS
TAF
KDLS 181722Z 1818/1918 VRB04KT P6SM VCSH BKN080 OVC100
     FM182200 31010KT P6SM SCT080 BKN100
     FM190400 29005KT P6SM BKN100
     FM191200 29005KT P6SM VCSH BKN080 OVC100=

USA.gov is the U.S. government's official web portal to all federal, state and local government web resources and services.